Time;durP1;ratioP1;P1;durP2;ratioP2;P2;SDS_P1;SDS_P2;PMS_P1;PMS_P2;Temp;Humidity;BMP_temperature;BMP_pressure;BME280_temperature;BME280_humidity;BME280_pressure;Samples;Min_cycle;Max_cycle;Signal;HPM_P1;HPM_P2
2022/06/06 00:00:00;;;;;;;44.20;20.03;;;14.90;99.90;;;;;;5049200;28;20601;-59
2022/06/06 00:02:29;;;;;;;43.93;19.97;;;14.90;99.90;;;;;;5083795;28;20739;-59
2022/06/06 00:04:57;;;;;;;40.93;19.93;;;15.00;99.90;;;;;;5083054;28;20192;-60
2022/06/06 00:07:25;;;;;;;37.03;18.17;;;15.00;99.90;;;;;;5078689;28;20204;-60
2022/06/06 00:09:52;;;;;;;39.97;19.27;;;15.00;99.90;;;;;;5074305;28;20210;-60
2022/06/06 00:12:23;;;;;;;31.40;16.93;;;15.00;99.90;;;;;;5060033;28;20616;-59
2022/06/06 00:14:50;;;;;;;40.13;18.20;;;15.00;99.90;;;;;;5072199;28;20584;-59
2022/06/06 00:17:16;;;;;;;38.37;18.30;;;15.00;99.90;;;;;;5080097;28;20658;-59
2022/06/06 00:19:43;;;;;;;37.33;16.73;;;15.00;99.90;;;;;;5074003;28;20216;-59
2022/06/06 00:22:10;;;;;;;36.53;18.83;;;15.00;99.90;;;;;;5078823;28;20661;-60
2022/06/06 00:24:40;;;;;;;35.60;16.97;;;15.00;99.90;;;;;;5079847;28;20198;-59
2022/06/06 00:27:07;;;;;;;32.90;17.27;;;15.10;99.90;;;;;;5078065;28;20613;-60
2022/06/06 00:29:35;;;;;;;35.00;17.60;;;15.00;99.90;;;;;;5082928;28;20212;-63
2022/06/06 00:34:53;;;;;;;31.30;16.83;;;15.00;99.90;;;;;;5082111;28;20258;-60
2022/06/06 00:37:29;;;;;;;34.20;16.93;;;15.00;99.90;;;;;;5078733;28;20561;-61
2022/06/06 00:39:57;;;;;;;34.17;16.27;;;15.00;99.90;;;;;;5080537;28;20321;-60
2022/06/06 00:42:34;;;;;;;31.03;15.23;;;15.00;99.90;;;;;;5076069;28;20252;-62
2022/06/06 00:45:34;;;;;;;34.00;16.03;;;15.00;99.90;;;;;;5079519;28;20281;-60
2022/06/06 00:48:19;;;;;;;31.03;15.77;;;15.00;99.90;;;;;;5080283;28;20195;-59
2022/06/06 00:50:57;;;;;;;31.00;15.57;;;15.00;99.90;;;;;;5077693;28;20241;-60
2022/06/06 00:53:39;;;;;;;30.63;16.70;;;15.10;99.90;;;;;;5079080;28;20209;-60
2022/06/06 00:56:18;;;;;;;28.13;16.03;;;15.00;99.90;;;;;;5081280;28;20205;-59
2022/06/06 00:58:47;;;;;;;29.40;15.83;;;15.10;99.90;;;;;;5081106;28;20233;-59
2022/06/06 01:01:14;;;;;;;30.57;15.83;;;15.00;99.90;;;;;;5079712;28;20197;-60
2022/06/06 01:03:42;;;;;;;33.07;16.53;;;15.10;99.90;;;;;;5079953;28;20723;-64
2022/06/06 01:06:13;;;;;;;33.33;15.53;;;15.00;99.90;;;;;;5077119;28;20198;-59
2022/06/06 01:08:41;;;;;;;29.77;15.13;;;15.00;99.90;;;;;;5081718;28;20225;-59
2022/06/06 01:11:08;;;;;;;28.80;15.87;;;15.10;99.90;;;;;;5078393;28;20651;-59
2022/06/06 01:13:37;;;;;;;29.73;15.70;;;15.10;99.90;;;;;;5081672;28;20269;-60
2022/06/06 01:16:30;;;;;;;29.37;15.53;;;15.00;99.90;;;;;;5079598;28;20197;-63
2022/06/06 01:19:00;;;;;;;30.90;15.07;;;15.10;99.90;;;;;;5078098;28;20221;-61
2022/06/06 01:21:32;;;;;;;28.37;15.50;;;15.00;99.90;;;;;;5080670;28;20204;-59
2022/06/06 01:24:05;;;;;;;30.23;15.57;;;15.10;99.90;;;;;;5062254;28;20254;-60
2022/06/06 01:26:51;;;;;;;28.40;14.70;;;15.10;99.90;;;;;;5080035;28;20280;-59
2022/06/06 01:29:28;;;;;;;32.47;14.83;;;15.00;99.90;;;;;;5082087;28;20203;-62
2022/06/06 01:32:05;;;;;;;30.67;15.40;;;15.00;99.90;;;;;;5080244;28;20236;-59
2022/06/06 01:34:35;;;;;;;27.77;13.57;;;15.10;99.90;;;;;;5078972;28;20209;-59
2022/06/06 01:37:03;;;;;;;25.60;13.80;;;15.10;99.90;;;;;;5079180;28;20922;-60
2022/06/06 01:39:32;;;;;;;29.37;14.00;;;15.00;99.90;;;;;;5081233;28;20677;-60
2022/06/06 01:42:11;;;;;;;24.13;12.80;;;15.10;99.90;;;;;;5074540;28;20635;-62
2022/06/06 01:44:45;;;;;;;27.87;13.27;;;15.00;99.90;;;;;;5081108;28;20203;-61
2022/06/06 01:47:21;;;;;;;22.47;11.67;;;15.00;99.90;;;;;;5078189;28;20290;-60
2022/06/06 01:49:50;;;;;;;25.97;12.60;;;15.00;99.90;;;;;;5057797;28;20615;-60
2022/06/06 01:52:16;;;;;;;28.77;13.67;;;15.10;99.90;;;;;;5077524;28;20663;-63
2022/06/06 01:54:43;;;;;;;26.07;12.17;;;15.10;99.90;;;;;;5076549;28;20209;-62
2022/06/06 01:57:14;;;;;;;19.40;10.50;;;15.10;99.90;;;;;;5076356;28;20200;-59
2022/06/06 01:59:41;;;;;;;18.70;11.00;;;15.20;99.90;;;;;;5077497;28;20662;-59
2022/06/06 02:02:09;;;;;;;20.37;10.10;;;15.10;99.90;;;;;;5077443;28;20196;-60
2022/06/06 02:04:35;;;;;;;18.50;10.53;;;15.10;99.90;;;;;;5077866;28;20225;-60
2022/06/06 02:07:03;;;;;;;18.13;9.97;;;15.00;99.90;;;;;;5074623;28;20662;-60
2022/06/06 02:09:32;;;;;;;21.93;10.67;;;15.10;99.90;;;;;;5077230;28;20244;-59
2022/06/06 02:12:00;;;;;;;18.63;9.90;;;15.20;99.90;;;;;;5072971;28;20234;-61
2022/06/06 02:14:28;;;;;;;19.33;10.73;;;15.10;99.90;;;;;;5076782;28;20257;-60
2022/06/06 02:16:55;;;;;;;17.67;9.60;;;15.20;99.90;;;;;;5079703;28;20290;-60
2022/06/06 02:19:22;;;;;;;18.87;10.40;;;15.10;99.90;;;;;;5061603;28;20213;-61
2022/06/06 02:21:49;;;;;;;20.33;10.63;;;15.10;99.90;;;;;;5076184;28;20227;-60
2022/06/06 02:24:16;;;;;;;23.10;12.10;;;15.20;99.90;;;;;;5074063;28;20294;-60
2022/06/06 02:26:42;;;;;;;23.00;12.93;;;15.20;99.90;;;;;;5071044;28;20187;-60
2022/06/06 02:29:09;;;;;;;26.40;14.87;;;15.30;99.90;;;;;;5079590;28;20195;-59
2022/06/06 02:31:39;;;;;;;28.03;16.10;;;15.20;99.90;;;;;;5079077;28;20765;-59
2022/06/06 02:34:07;;;;;;;29.53;16.97;;;15.20;99.90;;;;;;5082299;28;20711;-59
2022/06/06 02:36:35;;;;;;;34.20;18.57;;;15.20;99.90;;;;;;5074701;28;20636;-59
2022/06/06 02:39:02;;;;;;;33.63;18.67;;;15.30;99.90;;;;;;5077694;28;20286;-59
2022/06/06 02:41:29;;;;;;;38.77;19.63;;;15.30;99.90;;;;;;5058632;28;20199;-62
2022/06/06 02:43:56;;;;;;;42.03;21.40;;;15.30;99.90;;;;;;5079500;28;20195;-60
2022/06/06 02:46:23;;;;;;;43.53;22.33;;;15.20;99.90;;;;;;5079637;28;20195;-60
2022/06/06 02:48:50;;;;;;;46.83;23.27;;;15.20;99.90;;;;;;5078421;28;20289;-62
2022/06/06 02:51:17;;;;;;;44.80;23.73;;;15.10;99.90;;;;;;5074723;28;20235;-61
2022/06/06 02:53:44;;;;;;;47.67;23.97;;;15.20;99.90;;;;;;5076967;28;20262;-60
2022/06/06 02:56:11;;;;;;;53.10;26.27;;;15.10;99.90;;;;;;5060338;28;20198;-60
2022/06/06 02:58:38;;;;;;;53.43;27.43;;;15.00;99.90;;;;;;5078978;28;20238;-59
2022/06/06 03:01:09;;;;;;;60.17;27.67;;;15.00;99.90;;;;;;5076925;28;20294;-59
2022/06/06 03:03:37;;;;;;;60.53;26.67;;;15.00;99.90;;;;;;5078156;28;20343;-59
2022/06/06 03:06:04;;;;;;;59.23;27.50;;;15.00;99.90;;;;;;5075808;28;20611;-60
2022/06/06 03:09:15;;;;;;;60.80;28.43;;;15.00;99.90;;;;;;5061486;28;20244;-59
2022/06/06 03:12:20;;;;;;;57.83;27.83;;;15.00;99.90;;;;;;5078003;28;20226;-60
2022/06/06 03:15:24;;;;;;;57.23;27.37;;;14.90;99.90;;;;;;5079181;28;20544;-59
2022/06/06 03:21:16;;;;;;;55.40;27.60;;;15.00;99.90;;;;;;5075053;28;20227;-60
2022/06/06 03:24:02;;;;;;;54.37;26.27;;;15.00;99.90;;;;;;5080056;28;20679;-58
2022/06/06 03:27:11;;;;;;;51.03;26.87;;;14.90;99.90;;;;;;5079923;28;20634;-60
2022/06/06 03:29:44;;;;;;;57.17;28.80;;;14.80;99.90;;;;;;5072293;28;20210;-60
2022/06/06 03:32:29;;;;;;;54.57;27.13;;;14.80;99.90;;;;;;5078945;28;20628;-59
2022/06/06 03:35:24;;;;;;;52.13;27.70;;;14.90;99.90;;;;;;5079234;28;20616;-60
2022/06/06 03:38:13;;;;;;;50.23;25.70;;;14.90;99.90;;;;;;5078485;28;20623;-61
2022/06/06 03:40:45;;;;;;;56.33;26.13;;;14.90;99.90;;;;;;5061759;28;20813;-61
2022/06/06 03:43:31;;;;;;;49.87;26.63;;;14.90;99.90;;;;;;5079476;28;20209;-60
2022/06/06 03:46:37;;;;;;;55.50;27.13;;;14.80;99.90;;;;;;5079190;28;20625;-61
2022/06/06 03:49:44;;;;;;;50.57;26.00;;;14.90;99.90;;;;;;5079333;28;20539;-59
2022/06/06 03:52:48;;;;;;;54.87;27.90;;;14.90;99.90;;;;;;5081967;28;20203;-62
2022/06/06 03:55:32;;;;;;;53.70;27.90;;;14.80;99.90;;;;;;5031235;28;20252;-60
2022/06/06 03:58:03;;;;;;;50.87;25.90;;;14.90;99.90;;;;;;5079126;28;20190;-59
2022/06/06 04:00:31;;;;;;;49.53;27.33;;;14.80;99.90;;;;;;5079004;28;20223;-60
2022/06/06 04:03:00;;;;;;;52.93;26.37;;;14.70;99.90;;;;;;5079215;28;20241;-59
2022/06/06 04:05:30;;;;;;;49.60;26.30;;;14.70;99.90;;;;;;5063191;28;20200;-59
2022/06/06 04:07:57;;;;;;;49.47;25.50;;;14.80;99.90;;;;;;5080016;28;20609;-60
2022/06/06 04:10:37;;;;;;;46.77;24.87;;;14.70;99.90;;;;;;5061065;28;20636;-59
2022/06/06 04:13:31;;;;;;;39.93;23.00;;;14.60;99.90;;;;;;5078419;28;20294;-59
2022/06/06 04:16:20;;;;;;;41.23;23.47;;;14.60;99.90;;;;;;5078311;28;20329;-59
2022/06/06 04:19:26;;;;;;;44.67;24.03;;;14.60;99.90;;;;;;5080452;28;20307;-59
2022/06/06 04:22:14;;;;;;;41.63;22.80;;;14.50;99.90;;;;;;5050086;28;20366;-60
2022/06/06 04:25:05;;;;;;;35.80;21.00;;;14.40;99.90;;;;;;5080101;28;20793;-61
2022/06/06 04:27:50;;;;;;;40.13;21.13;;;14.30;99.90;;;;;;5078556;28;20379;-59
2022/06/06 04:30:51;;;;;;;39.00;21.90;;;14.40;99.90;;;;;;5078127;28;20654;-60
2022/06/06 04:33:31;;;;;;;35.60;20.43;;;14.30;99.90;;;;;;5074045;28;20292;-60
2022/06/06 04:36:09;;;;;;;32.77;19.97;;;14.40;99.90;;;;;;5077040;28;20245;-60
2022/06/06 04:38:51;;;;;;;31.97;19.73;;;14.30;99.90;;;;;;5083670;28;20334;-61
2022/06/06 04:41:26;;;;;;;33.17;19.53;;;14.30;99.90;;;;;;5062478;28;20648;-61
2022/06/06 04:44:12;;;;;;;33.90;20.90;;;14.30;99.90;;;;;;5077983;28;20544;-60
2022/06/06 04:46:52;;;;;;;38.63;21.83;;;14.40;99.90;;;;;;5079141;28;20202;-60
2022/06/06 04:49:21;;;;;;;35.07;21.10;;;14.30;99.90;;;;;;5074515;28;20376;-60
2022/06/06 04:51:50;;;;;;;28.33;18.07;;;14.30;99.90;;;;;;5078561;28;20648;-60
2022/06/06 04:54:21;;;;;;;30.20;19.20;;;14.20;99.90;;;;;;5080688;28;20273;-60
2022/06/06 04:56:54;;;;;;;27.77;17.83;;;14.30;99.90;;;;;;5075401;28;20670;-60
2022/06/06 04:59:24;;;;;;;29.23;17.83;;;14.20;99.90;;;;;;5078807;28;20284;-59
2022/06/06 05:01:51;;;;;;;27.37;18.07;;;14.20;99.90;;;;;;5074118;28;20301;-60
2022/06/06 05:04:18;;;;;;;28.00;18.03;;;14.20;99.90;;;;;;5080272;28;20743;-59
2022/06/06 05:07:03;;;;;;;31.23;18.13;;;14.20;99.90;;;;;;5077018;28;21730;-58
2022/06/06 05:09:52;;;;;;;28.13;17.17;;;14.20;99.90;;;;;;5079610;28;20203;-60
2022/06/06 05:12:55;;;;;;;26.50;17.53;;;14.20;99.90;;;;;;5071229;28;20214;-61
2022/06/06 05:15:43;;;;;;;26.90;17.47;;;14.20;99.90;;;;;;5082650;28;20259;-59
2022/06/06 05:18:32;;;;;;;22.60;16.57;;;14.20;99.90;;;;;;5079409;28;20206;-59
2022/06/06 05:21:11;;;;;;;24.07;15.03;;;14.20;99.90;;;;;;5074133;28;20834;-62
2022/06/06 05:23:50;;;;;;;23.67;14.20;;;14.10;99.90;;;;;;5079456;28;20336;-59
2022/06/06 05:26:48;;;;;;;19.67;14.43;;;14.00;99.90;;;;;;5073155;28;20618;-60
2022/06/06 05:29:42;;;;;;;21.70;14.33;;;14.00;99.90;;;;;;5059670;28;20622;-59
2022/06/06 05:32:35;;;;;;;19.90;14.20;;;14.00;99.90;;;;;;5078348;28;20317;-60
2022/06/06 05:35:28;;;;;;;17.37;13.80;;;14.10;99.90;;;;;;5077005;28;20191;-59
2022/06/06 05:38:10;;;;;;;18.30;13.13;;;14.10;99.90;;;;;;5078754;28;20278;-58
2022/06/06 05:41:05;;;;;;;20.47;13.03;;;14.00;99.90;;;;;;5076569;28;20216;-60
2022/06/06 05:43:41;;;;;;;19.17;13.33;;;14.10;99.90;;;;;;5062368;28;20230;-59
2022/06/06 05:46:24;;;;;;;20.40;12.60;;;14.10;99.90;;;;;;5078068;28;21816;-60
2022/06/06 05:49:06;;;;;;;17.83;11.90;;;14.10;99.90;;;;;;5075642;28;20289;-60
2022/06/06 05:51:51;;;;;;;16.97;12.40;;;14.20;99.90;;;;;;5078472;28;20221;-59
2022/06/06 05:55:07;;;;;;;15.47;11.83;;;14.30;99.90;;;;;;5075360;28;20604;-59
2022/06/06 05:58:16;;;;;;;15.63;11.60;;;14.30;99.90;;;;;;5015689;28;20727;-61
2022/06/06 06:01:07;;;;;;;18.40;11.73;;;14.40;99.90;;;;;;5014905;28;20247;-59
2022/06/06 06:03:37;;;;;;;15.17;10.43;;;14.50;99.90;;;;;;5070455;28;21078;-59
2022/06/06 06:06:36;;;;;;;16.77;11.27;;;14.70;99.90;;;;;;5076454;28;20196;-59
2022/06/06 06:09:05;;;;;;;11.77;10.03;;;14.60;99.90;;;;;;5071385;28;20562;-61
2022/06/06 06:11:39;;;;;;;12.73;9.67;;;14.70;99.90;;;;;;5077947;28;20299;-59
2022/06/06 06:14:26;;;;;;;12.47;9.00;;;14.60;99.90;;;;;;5075852;28;20208;-62
2022/06/06 06:16:59;;;;;;;12.77;9.77;;;14.50;99.90;;;;;;5061806;28;20250;-59
2022/06/06 06:19:36;;;;;;;10.20;8.17;;;14.50;99.90;;;;;;5078316;28;20243;-59
2022/06/06 06:22:05;;;;;;;13.93;9.33;;;14.60;99.90;;;;;;5075266;28;21035;-63
2022/06/06 06:24:36;;;;;;;11.57;7.60;;;14.80;99.90;;;;;;5075047;28;20204;-63
2022/06/06 06:27:04;;;;;;;10.00;7.30;;;14.80;99.90;;;;;;5069980;28;20221;-60
2022/06/06 06:29:31;;;;;;;11.97;7.10;;;14.70;99.90;;;;;;5076915;28;20204;-61
2022/06/06 06:32:23;;;;;;;8.90;6.77;;;14.90;99.90;;;;;;5061551;28;20235;-59
2022/06/06 06:35:12;;;;;;;7.80;5.50;;;15.00;99.90;;;;;;5072062;28;20205;-61
2022/06/06 06:37:47;;;;;;;7.70;5.80;;;15.00;99.90;;;;;;5075029;28;20293;-60
2022/06/06 06:40:23;;;;;;;9.20;5.37;;;15.00;99.90;;;;;;5078806;28;20232;-61
2022/06/06 06:42:59;;;;;;;8.13;5.60;;;15.10;99.90;;;;;;5077075;28;20319;-62
2022/06/06 06:45:28;;;;;;;9.37;5.10;;;15.20;99.90;;;;;;5061710;28;20544;-61
2022/06/06 06:48:10;;;;;;;7.03;4.80;;;15.30;99.90;;;;;;5055381;28;20187;-62
2022/06/06 06:51:09;;;;;;;6.73;4.60;;;15.30;99.90;;;;;;5076416;28;20309;-59
2022/06/06 06:54:05;;;;;;;7.20;5.77;;;15.20;99.90;;;;;;5076448;28;20228;-59
2022/06/06 06:56:55;;;;;;;9.73;5.90;;;15.10;99.90;;;;;;5076832;28;20209;-61
2022/06/06 06:59:42;;;;;;;9.70;5.75;;;15.10;99.90;;;;;;5077817;28;20207;-61
2022/06/06 07:08:32;;;;;;;5.40;4.13;;;15.40;99.90;;;;;;5079360;28;20281;-60
2022/06/06 07:11:30;;;;;;;7.43;4.60;;;15.50;99.90;;;;;;5078311;28;20211;-60
2022/06/06 07:13:56;;;;;;;5.17;4.43;;;15.60;99.90;;;;;;5078853;28;20792;-60
2022/06/06 07:16:26;;;;;;;9.67;4.90;;;15.60;99.90;;;;;;5087800;28;20303;-60
2022/06/06 07:19:15;;;;;;;5.17;4.00;;;15.60;99.90;;;;;;5080354;28;20684;-61
2022/06/06 07:21:43;;;;;;;6.93;3.93;;;15.70;99.90;;;;;;5080032;28;20268;-59
2022/06/06 07:24:14;;;;;;;6.93;4.17;;;15.70;99.90;;;;;;5079664;28;20614;-59
2022/06/06 07:26:43;;;;;;;8.97;4.27;;;15.60;99.90;;;;;;5078746;28;20256;-61
2022/06/06 07:29:12;;;;;;;5.43;3.90;;;15.80;99.90;;;;;;5077323;28;20844;-62
2022/06/06 07:32:26;;;;;;;5.70;3.23;;;15.80;99.90;;;;;;5085588;28;20199;-62
2022/06/06 07:35:17;;;;;;;3.87;3.33;;;15.80;99.90;;;;;;5080723;28;20536;-60
2022/06/06 07:37:54;;;;;;;5.57;2.70;;;15.90;99.90;;;;;;5081434;28;20245;-59
2022/06/06 07:40:36;;;;;;;3.00;2.30;;;15.80;99.90;;;;;;5079628;28;20258;-61
2022/06/06 07:43:09;;;;;;;5.13;2.53;;;15.80;99.90;;;;;;5079981;28;20611;-63
2022/06/06 07:45:43;;;;;;;4.47;2.83;;;15.80;99.90;;;;;;5065485;28;20249;-60
2022/06/06 07:48:32;;;;;;;3.77;2.80;;;15.60;99.90;;;;;;5081013;28;20212;-59
2022/06/06 07:51:14;;;;;;;3.00;2.70;;;15.50;99.90;;;;;;5079165;28;20256;-59
2022/06/06 07:53:47;;;;;;;2.77;2.37;;;15.50;99.90;;;;;;5080959;28;20235;-59
2022/06/06 07:56:32;;;;;;;3.87;2.10;;;15.60;1.00;;;;;;5077950;28;20891;-60
2022/06/06 07:59:24;;;;;;;2.43;2.13;;;15.90;1.00;;;;;;5075360;28;20203;-60
2022/06/06 08:02:03;;;;;;;5.07;2.33;;;16.10;99.90;;;;;;5080127;28;20212;-59
2022/06/06 08:04:44;;;;;;;2.73;2.10;;;16.00;99.90;;;;;;5075576;28;20195;-60
2022/06/06 08:07:44;;;;;;;2.23;1.97;;;16.30;99.90;;;;;;5077554;28;20192;-59
2022/06/06 08:10:13;;;;;;;3.00;2.37;;;16.40;99.90;;;;;;5078794;28;20213;-61
2022/06/06 08:13:03;;;;;;;3.97;2.47;;;16.40;99.90;;;;;;5080059;28;20231;-61
2022/06/06 08:15:42;;;;;;;2.90;2.60;;;16.50;99.90;;;;;;5089201;28;20249;-60
2022/06/06 08:18:33;;;;;;;5.13;2.10;;;16.50;99.90;;;;;;5082070;28;20228;-60
2022/06/06 08:21:22;;;;;;;2.20;2.07;;;16.70;99.90;;;;;;5062690;28;20314;-60
2022/06/06 08:23:53;;;;;;;2.30;2.10;;;17.20;99.90;;;;;;5078619;28;20725;-62
2022/06/06 08:26:23;;;;;;;5.40;2.93;;;17.20;99.90;;;;;;5078952;28;20230;-60
2022/06/06 08:28:51;;;;;;;4.07;2.10;;;17.40;99.90;;;;;;5076333;28;20197;-60
2022/06/06 08:31:19;;;;;;;3.37;2.27;;;17.70;99.90;;;;;;5081455;28;20232;-60
2022/06/06 08:33:47;;;;;;;2.33;2.10;;;17.80;99.90;;;;;;5054254;28;20289;-61
2022/06/06 08:36:34;;;;;;;4.80;2.40;;;17.30;99.90;;;;;;5064029;28;20251;-60
2022/06/06 08:39:14;;;;;;;5.40;2.10;;;17.40;99.90;;;;;;5086252;28;20284;-59
2022/06/06 08:41:53;;;;;;;4.57;2.37;;;17.40;99.90;;;;;;5086914;28;20591;-60
2022/06/06 08:44:42;;;;;;;3.30;2.10;;;17.80;90.90;;;;;;5080439;28;20315;-62
2022/06/06 08:47:18;;;;;;;2.60;1.80;;;17.60;99.90;;;;;;5071716;28;20287;-61
2022/06/06 08:53:14;;;;;;;3.27;1.87;;;17.70;99.90;;;;;;5069529;28;21658;-62
2022/06/06 08:55:50;;;;;;;3.17;1.70;;;18.10;1.00;;;;;;5067555;28;20274;-62
2022/06/06 08:58:55;;;;;;;4.13;1.83;;;17.90;99.90;;;;;;5069260;28;20193;-63
2022/06/06 09:01:55;;;;;;;3.07;1.90;;;17.30;99.90;;;;;;5072464;28;20205;-60
2022/06/06 09:04:46;;;;;;;5.73;2.10;;;17.40;99.90;;;;;;5077405;28;20210;-60
2022/06/06 09:07:51;;;;;;;2.60;1.60;;;17.80;1.00;;;;;;5060199;28;20201;-61
2022/06/06 09:10:52;;;;;;;2.10;1.83;;;17.30;99.90;;;;;;5060696;28;20240;-60
2022/06/06 09:13:27;;;;;;;3.50;1.80;;;17.10;1.00;;;;;;5072219;28;20724;-59
2022/06/06 09:15:57;;;;;;;3.57;1.83;;;17.50;1.00;;;;;;5069699;28;20213;-64
2022/06/06 09:18:29;;;;;;;4.60;1.53;;;17.40;1.00;;;;;;5078332;28;20255;-60
2022/06/06 09:21:21;;;;;;;2.50;1.43;;;17.10;1.00;;;;;;5065504;28;20221;-60
2022/06/06 09:24:09;;;;;;;2.37;1.80;;;17.10;1.00;;;;;;5059903;28;20271;-59
2022/06/06 09:27:04;;;;;;;1.60;1.50;;;17.20;1.00;;;;;;5061032;28;20271;-58
2022/06/06 09:29:31;;;;;;;2.53;1.80;;;17.40;1.00;;;;;;5075413;28;20292;-58
2022/06/06 09:32:33;;;;;;;1.70;1.60;;;17.80;99.90;;;;;;5070065;28;20233;-62
2022/06/06 09:35:28;;;;;;;2.10;1.60;;;18.00;1.00;;;;;;5077446;28;20228;-60
2022/06/06 09:38:02;;;;;;;2.53;2.00;;;18.10;1.00;;;;;;5073912;28;20202;-60
2022/06/06 09:41:03;;;;;;;2.50;1.87;;;18.00;1.00;;;;;;5082756;28;20295;-60
2022/06/06 09:44:04;;;;;;;2.80;2.10;;;17.60;99.90;;;;;;5080995;28;20584;-60
2022/06/06 09:46:43;;;;;;;2.67;2.00;;;17.50;99.90;;;;;;5079892;28;20207;-61
2022/06/06 09:49:35;;;;;;;3.30;1.90;;;17.70;1.00;;;;;;5077787;28;20205;-60
2022/06/06 09:52:28;;;;;;;3.73;2.23;;;17.80;1.00;;;;;;5086337;28;20628;-62
2022/06/06 09:59:03;;;;;;;4.43;2.80;;;18.10;1.00;;;;;;5069070;28;20240;-60
2022/06/06 10:02:08;;;;;;;3.97;2.17;;;17.90;1.00;;;;;;5072305;28;20272;-61
2022/06/06 10:04:44;;;;;;;3.13;2.70;;;17.60;1.00;;;;;;5059187;28;20282;-60
2022/06/06 10:07:49;;;;;;;3.37;2.30;;;17.80;1.00;;;;;;5057137;28;20245;-60
2022/06/06 10:10:25;;;;;;;2.50;2.23;;;17.90;1.00;;;;;;5078546;28;20321;-62
2022/06/06 10:13:05;;;;;;;3.57;2.77;;;18.00;1.00;;;;;;5074218;28;20225;-60
2022/06/06 10:15:52;;;;;;;4.73;2.03;;;17.90;1.00;;;;;;5066634;28;20752;-63
2022/06/06 10:18:33;;;;;;;2.20;2.00;;;17.80;1.00;;;;;;5074995;28;20235;-60
2022/06/06 10:21:24;;;;;;;2.87;2.40;;;17.70;99.90;;;;;;5073116;28;20290;-60
2022/06/06 10:24:27;;;;;;;4.23;1.90;;;17.60;1.00;;;;;;5057472;28;20615;-59
2022/06/06 10:27:07;;;;;;;2.73;1.90;;;17.50;99.90;;;;;;5061804;28;20329;-61
2022/06/06 10:30:13;;;;;;;3.77;2.67;;;17.60;1.00;;;;;;5075040;28;20539;-60
2022/06/06 10:33:19;;;;;;;4.13;2.80;;;17.00;1.00;;;;;;5078382;28;20237;-60
2022/06/06 10:36:13;;;;;;;2.73;1.93;;;16.70;21.30;;;;;;5073353;28;21605;-61
2022/06/06 10:38:54;;;;;;;1.97;1.87;;;16.60;1.00;;;;;;5077756;28;20289;-61
2022/06/06 10:41:42;;;;;;;3.70;2.00;;;16.60;1.00;;;;;;5054831;28;20292;-60
2022/06/06 10:44:36;;;;;;;2.60;1.63;;;17.00;1.00;;;;;;5074754;28;20645;-62
2022/06/06 10:47:34;;;;;;;2.87;1.60;;;17.80;1.00;;;;;;5073209;28;20267;-60
2022/06/06 10:50:18;;;;;;;2.50;2.10;;;18.00;1.00;;;;;;5074668;28;20769;-59
2022/06/06 10:53:17;;;;;;;3.40;1.47;;;18.20;1.00;;;;;;5074886;28;20202;-60
2022/06/06 10:56:18;;;;;;;2.90;1.60;;;18.50;1.00;;;;;;5067746;28;20677;-62
2022/06/06 10:59:03;;;;;;;1.70;1.40;;;18.90;99.90;;;;;;5070598;28;20563;-60
2022/06/06 11:01:55;;;;;;;2.47;1.40;;;19.20;99.90;;;;;;5054028;28;20222;-60
2022/06/06 11:04:21;;;;;;;3.80;1.30;;;19.40;1.00;;;;;;5073279;28;20520;-60
2022/06/06 11:07:16;;;;;;;2.20;1.30;;;19.70;1.00;;;;;;5055324;28;20247;-62
2022/06/06 11:09:49;;;;;;;2.83;1.50;;;19.70;99.90;;;;;;5070610;28;20192;-62
2022/06/06 11:12:45;;;;;;;1.73;1.53;;;19.70;1.00;;;;;;5068684;28;20208;-60
2022/06/06 11:15:12;;;;;;;3.47;1.70;;;19.80;1.00;;;;;;5076417;28;20613;-60
2022/06/06 11:17:54;;;;;;;1.87;1.30;;;20.00;1.00;;;;;;5057236;28;20249;-62
2022/06/06 11:20:27;;;;;;;2.03;1.40;;;20.00;1.00;;;;;;5072593;28;20668;-62
2022/06/06 11:23:23;;;;;;;1.60;1.20;;;19.60;5.70;;;;;;5071449;28;20222;-63
2022/06/06 11:26:27;;;;;;;2.80;1.30;;;19.60;99.90;;;;;;5056206;28;20610;-62
2022/06/06 11:29:10;;;;;;;2.33;1.40;;;19.50;1.00;;;;;;5071333;28;20660;-60
2022/06/06 11:32:16;;;;;;;2.07;1.50;;;19.30;99.90;;;;;;5058790;28;20661;-62
2022/06/06 11:35:12;;;;;;;1.87;1.43;;;19.20;1.00;;;;;;5044931;28;20210;-61
2022/06/06 11:37:41;;;;;;;1.90;1.77;;;19.00;99.90;;;;;;5073925;28;20200;-60
2022/06/06 11:40:31;;;;;;;3.67;1.20;;;18.80;1.00;;;;;;5074501;28;20232;-60
2022/06/06 11:43:19;;;;;;;2.10;1.30;;;18.70;1.00;;;;;;5072099;28;20292;-59
2022/06/06 11:46:09;;;;;;;1.93;1.20;;;18.60;99.90;;;;;;5073434;28;20234;-60
2022/06/06 11:48:48;;;;;;;2.47;1.33;;;18.40;99.90;;;;;;5074479;28;20206;-63
2022/06/06 11:51:46;;;;;;;1.17;1.00;;;18.20;1.00;;;;;;5079280;28;20314;-52
2022/06/06 11:54:34;;;;;;;3.20;1.53;;;18.20;99.90;;;;;;5077513;28;20216;-52
2022/06/06 11:57:32;;;;;;;3.20;1.30;;;18.10;99.90;;;;;;5072589;28;20208;-54
2022/06/06 12:00:11;;;;;;;3.93;1.30;;;17.30;1.00;;;;;;5073004;28;20234;-53
2022/06/06 12:02:50;;;;;;;3.37;1.07;;;16.60;43.10;;;;;;5075705;28;20215;-53
2022/06/06 12:05:27;;;;;;;3.40;1.10;;;16.40;99.90;;;;;;5073196;28;20247;-53
2022/06/06 12:08:22;;;;;;;1.00;0.90;;;16.30;99.90;;;;;;5078521;28;20217;-53
2022/06/06 12:10:49;;;;;;;2.07;0.93;;;16.20;37.70;;;;;;5081185;28;20245;-52
2022/06/06 12:13:56;;;;;;;1.27;1.00;;;16.30;99.90;;;;;;5078535;28;20202;-52
2022/06/06 12:16:59;;;;;;;3.00;1.20;;;16.30;99.90;;;;;;5072525;28;20200;-54
2022/06/06 12:20:01;;;;;;;1.63;1.20;;;16.60;99.90;;;;;;5075880;28;20194;-52
2022/06/06 12:22:43;;;;;;;1.90;1.20;;;16.60;99.90;;;;;;5078324;28;20304;-53
2022/06/06 12:25:51;;;;;;;2.37;1.30;;;16.60;99.90;;;;;;5077023;28;20252;-52
2022/06/06 12:28:56;;;;;;;3.40;1.30;;;16.60;99.90;;;;;;5076885;28;20743;-50
2022/06/06 12:31:41;;;;;;;3.90;1.60;;;16.70;99.90;;;;;;5078416;28;20240;-52
2022/06/06 12:34:20;;;;;;;1.90;1.40;;;16.80;99.90;;;;;;5078525;28;20209;-53
2022/06/06 12:37:09;;;;;;;3.57;1.73;;;16.70;99.90;;;;;;5069782;28;20275;-53
2022/06/06 12:40:16;;;;;;;2.83;1.53;;;16.50;99.90;;;;;;5074798;28;20306;-53
2022/06/06 12:43:37;;;;;;;2.13;1.60;;;16.70;99.90;;;;;;5046678;28;20906;-52
2022/06/06 12:46:58;;;;;;;1.73;1.37;;;16.70;99.90;;;;;;5023409;28;20212;-53
2022/06/06 12:49:37;;;;;;;2.97;1.40;;;16.60;99.90;;;;;;4980688;28;20305;-50
2022/06/06 12:52:25;;;;;;;3.57;1.50;;;16.80;99.90;;;;;;4981915;28;20284;-50
2022/06/06 12:55:33;;;;;;;6.07;3.27;;;17.20;99.90;;;;;;5008597;28;20632;-50
2022/06/06 12:58:10;;;;;;;1.50;1.40;;;17.30;99.90;;;;;;5020956;28;20208;-52
2022/06/06 13:03:59;;;;;;;5.23;2.07;;;17.30;99.90;;;;;;5024537;28;20219;-54
2022/06/06 13:07:09;;;;;;;1.70;1.50;;;17.50;99.90;;;;;;5017492;28;20210;-53
2022/06/06 13:10:12;;;;;;;2.03;1.83;;;17.60;99.90;;;;;;5019499;28;20215;-53
2022/06/06 13:13:05;;;;;;;3.43;2.10;;;17.60;71.00;;;;;;5018562;28;20216;-53
2022/06/06 13:15:55;;;;;;;2.70;1.73;;;17.70;42.90;;;;;;5017808;28;20623;-54
2022/06/06 13:18:53;;;;;;;1.83;1.60;;;17.80;1.00;;;;;;5013820;28;20742;-52
2022/06/06 13:21:39;;;;;;;2.43;1.47;;;18.00;1.00;;;;;;5075410;28;20352;-54
2022/06/06 13:24:24;;;;;;;7.10;2.10;;;18.00;1.00;;;;;;5071897;28;20630;-53
2022/06/06 13:27:13;;;;;;;4.33;1.70;;;18.00;1.00;;;;;;5074117;28;20719;-53
2022/06/06 13:29:41;;;;;;;3.03;1.70;;;17.70;1.00;;;;;;5080133;28;20205;-53
2022/06/06 13:32:16;;;;;;;2.63;1.57;;;17.30;1.00;;;;;;5073745;28;20206;-53
2022/06/06 13:35:11;;;;;;;2.03;1.50;;;17.00;1.00;;;;;;5075715;28;20285;-52
2022/06/06 13:38:06;;;;;;;3.47;1.93;;;16.60;1.00;;;;;;5063520;28;20312;-52
2022/06/06 13:40:41;;;;;;;4.27;1.57;;;16.70;1.00;;;;;;5081112;28;20305;-53
2022/06/06 13:43:21;;;;;;;6.63;1.80;;;16.70;21.60;;;;;;5077250;28;20309;-53
2022/06/06 13:46:00;;;;;;;2.27;1.87;;;16.70;1.00;;;;;;5077794;28;20584;-52
2022/06/06 13:48:53;;;;;;;3.00;1.50;;;16.60;1.00;;;;;;5083392;28;20197;-52
2022/06/06 13:51:41;;;;;;;3.80;1.70;;;16.70;1.00;;;;;;5079123;28;20324;-53
2022/06/06 13:54:24;;;;;;;2.73;1.47;;;16.80;1.00;;;;;;5079090;28;20193;-52
2022/06/06 13:56:57;;;;;;;2.17;1.40;;;16.90;1.00;;;;;;5073056;28;20233;-52
2022/06/06 13:59:59;;;;;;;4.83;1.50;;;16.80;1.00;;;;;;5073281;28;20233;-55
2022/06/06 14:03:00;;;;;;;2.37;1.50;;;16.80;1.00;;;;;;5071860;28;20412;-54
2022/06/06 14:05:57;;;;;;;1.53;1.43;;;17.00;1.00;;;;;;5075900;28;20279;-53
2022/06/06 14:08:51;;;;;;;5.93;1.70;;;16.90;1.00;;;;;;5076445;28;20212;-51
2022/06/06 14:11:54;;;;;;;3.67;1.60;;;17.00;1.00;;;;;;5079653;28;20229;-52
2022/06/06 14:14:23;;;;;;;5.30;1.53;;;17.00;1.00;;;;;;5076728;28;20290;-53
2022/06/06 14:17:12;;;;;;;4.40;1.67;;;17.10;1.00;;;;;;5070420;28;20296;-52
2022/06/06 14:19:46;;;;;;;3.40;1.70;;;17.10;1.00;;;;;;5059865;28;20340;-53